createdAt,value
2018-07-11T00:01:29.459Z,87.63
2018-07-11T00:04:01.663Z,91.90
2018-07-11T00:06:33.830Z,85.47
2018-07-11T00:09:05.598Z,78.93
2018-07-11T00:11:37.647Z,75.87
2018-07-11T00:14:09.554Z,71.07
2018-07-11T00:17:45.258Z,88.17
2018-07-11T00:20:17.083Z,80.53
2018-07-11T00:22:50.107Z,78.93
2018-07-11T00:25:22.213Z,77.93
2018-07-11T00:27:54.686Z,86.97
2018-07-11T00:30:26.882Z,72.97
2018-07-11T00:32:59.272Z,77.87
2018-07-11T00:35:31.008Z,70.50
2018-07-11T00:38:03.546Z,81.17
2018-07-11T00:40:35.520Z,79.13
2018-07-11T00:43:07.763Z,73.30
2018-07-11T00:45:40.013Z,70.77
2018-07-11T00:48:12.782Z,77.00
2018-07-11T00:50:45.545Z,72.80
2018-07-11T00:53:18.250Z,81.10
2018-07-11T00:55:50.509Z,76.77
2018-07-11T00:58:29.356Z,71.00
2018-07-11T01:01:14.230Z,78.50
2018-07-11T01:03:52.655Z,73.07
2018-07-11T01:06:25.178Z,80.00
2018-07-11T01:08:58.667Z,77.87
2018-07-11T01:11:40.194Z,83.90
2018-07-11T01:14:12.218Z,83.30
2018-07-11T01:16:44.261Z,91.87
2018-07-11T01:19:18.476Z,91.33
2018-07-11T01:21:55.174Z,78.47
2018-07-11T01:24:27.745Z,93.23
2018-07-11T01:26:59.734Z,105.50
2018-07-11T01:29:31.526Z,104.50
2018-07-11T01:32:03.182Z,98.83
2018-07-11T01:34:35.454Z,102.53
2018-07-11T01:37:07.099Z,106.13
2018-07-11T01:39:39.370Z,93.93
2018-07-11T01:42:11.254Z,91.13
2018-07-11T01:44:43.435Z,89.13
2018-07-11T01:47:15.410Z,93.43
2018-07-11T01:49:48.010Z,95.13
2018-07-11T01:52:29.738Z,91.57
2018-07-11T01:55:02.170Z,102.63
2018-07-11T01:57:34.545Z,97.73
2018-07-11T02:00:06.968Z,75.73
2018-07-11T02:02:37.815Z,72.97
2018-07-11T02:05:09.826Z,86.70
2018-07-11T02:07:41.917Z,77.10
2018-07-11T02:10:12.783Z,88.43
2018-07-11T02:12:45.177Z,82.63
2018-07-11T02:15:17.763Z,88.10
2018-07-11T02:17:49.799Z,87.50
2018-07-11T02:20:23.410Z,89.07
2018-07-11T02:22:56.063Z,72.73
2018-07-11T02:25:28.506Z,71.00
2018-07-11T02:27:59.654Z,75.53
2018-07-11T02:30:33.604Z,74.13
2018-07-11T02:33:06.092Z,75.77
2018-07-11T02:35:38.543Z,85.17
2018-07-11T02:38:10.911Z,72.57
2018-07-11T02:40:44.723Z,83.80
2018-07-11T02:43:16.677Z,74.67
2018-07-11T02:45:48.399Z,73.03
2018-07-11T02:48:24.290Z,72.63
2018-07-11T02:51:00.246Z,79.50
2018-07-11T02:53:39.672Z,91.07
2018-07-11T02:56:13.376Z,79.73
2018-07-11T02:58:44.201Z,86.03
2018-07-11T03:01:16.371Z,72.43
2018-07-11T03:03:53.563Z,80.00
2018-07-11T03:06:26.328Z,79.17
2018-07-11T03:08:58.097Z,107.63
2018-07-11T03:11:33.263Z,83.67
2018-07-11T03:14:07.200Z,88.10
2018-07-11T03:16:41.294Z,87.50
2018-07-11T03:19:13.099Z,90.57
2018-07-11T03:21:45.091Z,88.07
2018-07-11T03:24:17.936Z,98.07
2018-07-11T03:26:50.010Z,101.60
2018-07-11T03:29:21.675Z,85.63
2018-07-11T03:31:54.901Z,94.83
2018-07-11T03:34:26.723Z,101.40
2018-07-11T03:36:58.979Z,101.33
2018-07-11T03:39:38.686Z,100.60
2018-07-11T03:42:14.879Z,98.80
2018-07-11T03:44:57.122Z,96.37
2018-07-11T03:47:42.231Z,85.53
2018-07-11T03:50:25.916Z,93.03
2018-07-11T03:53:08.260Z,86.00
2018-07-11T03:55:54.012Z,87.50
2018-07-11T03:58:39.020Z,79.83
2018-07-11T04:01:17.599Z,83.87
2018-07-11T04:03:50.588Z,83.80
2018-07-11T04:06:24.440Z,93.53
2018-07-11T04:08:58.786Z,94.57
2018-07-11T04:11:36.970Z,89.23
2018-07-11T04:14:16.481Z,93.00
2018-07-11T04:16:58.028Z,85.27
2018-07-11T04:19:30.721Z,85.87
2018-07-11T04:22:01.674Z,80.50
2018-07-11T04:24:43.142Z,84.70
2018-07-11T04:27:16.467Z,90.17
2018-07-11T04:29:57.748Z,81.13
2018-07-11T04:32:30.989Z,79.93
2018-07-11T04:35:03.507Z,74.83
2018-07-11T04:37:35.210Z,87.90
2018-07-11T04:40:16.613Z,93.87
2018-07-11T04:42:49.935Z,82.77
2018-07-11T04:45:21.245Z,87.27
2018-07-11T04:47:53.989Z,86.97
2018-07-11T04:50:25.387Z,68.87
2018-07-11T04:52:57.982Z,85.03
2018-07-11T04:55:32.291Z,82.03
2018-07-11T04:58:03.846Z,64.20
2018-07-11T05:00:35.681Z,76.47
2018-07-11T05:03:07.827Z,75.97
2018-07-11T05:05:39.799Z,98.78
2018-07-11T05:08:11.690Z,92.57
2018-07-11T05:10:43.403Z,87.47
2018-07-11T05:13:15.227Z,80.00
2018-07-11T05:15:47.790Z,89.95
2018-07-11T05:18:19.612Z,71.40
2018-07-11T05:20:52.775Z,69.42
2018-07-11T05:23:24.551Z,70.87
2018-07-11T05:25:58.074Z,62.45
2018-07-11T05:28:29.831Z,54.58
2018-07-11T05:31:01.900Z,73.22
2018-07-11T05:33:33.328Z,83.78
2018-07-11T05:36:05.950Z,67.53
2018-07-11T05:38:45.133Z,74.32
2018-07-11T05:41:25.186Z,71.75
2018-07-11T05:43:58.076Z,90.57
2018-07-11T05:54:00.841Z,58.95
2018-07-11T05:59:31.106Z,74.82
2018-07-11T06:02:03.042Z,65.32
2018-07-11T06:04:35.294Z,66.12
2018-07-11T06:07:07.074Z,75.65
2018-07-11T06:09:42.290Z,69.70
2018-07-11T06:12:17.428Z,68.45
2018-07-11T06:14:48.647Z,72.53
2018-07-11T06:17:20.550Z,77.97
2018-07-11T06:19:52.589Z,69.60
2018-07-11T06:22:24.503Z,71.60
2018-07-11T06:24:56.450Z,69.92
2018-07-11T06:27:28.709Z,67.20
2018-07-11T06:30:00.664Z,69.10
2018-07-11T06:32:32.523Z,74.58
2018-07-11T06:35:04.430Z,63.78
2018-07-11T06:37:36.031Z,70.72
2018-07-11T06:40:08.012Z,69.07
2018-07-11T06:42:39.823Z,55.20
2018-07-11T06:45:11.899Z,62.48
2018-07-11T06:47:43.727Z,74.15
2018-07-11T06:50:16.008Z,62.95
2018-07-11T06:52:47.811Z,61.95
2018-07-11T06:55:21.436Z,61.48
2018-07-11T06:57:53.334Z,63.20
2018-07-11T07:00:25.455Z,57.98
2018-07-11T07:02:57.307Z,50.28
2018-07-11T07:05:29.019Z,60.98
2018-07-11T07:08:00.746Z,51.80
2018-07-11T07:10:32.803Z,53.78
2018-07-11T07:13:04.556Z,55.40
2018-07-11T07:15:36.678Z,55.52
2018-07-11T07:18:08.439Z,52.00
2018-07-11T07:20:40.646Z,48.17
2018-07-11T07:23:12.554Z,50.12
2018-07-11T07:25:44.823Z,52.75
2018-07-11T07:28:16.724Z,45.90
2018-07-11T07:30:48.898Z,57.30
2018-07-11T07:33:20.895Z,48.60
2018-07-11T07:35:52.986Z,58.78
2018-07-11T07:38:24.847Z,50.63
2018-07-11T07:40:56.817Z,49.55
2018-07-11T07:43:29.031Z,69.17
2018-07-11T07:46:01.156Z,79.30
2018-07-11T07:48:33.182Z,75.90
2018-07-11T07:51:05.587Z,70.75
2018-07-11T07:53:36.649Z,68.80
2018-07-11T07:56:08.999Z,72.85
2018-07-11T07:58:40.990Z,70.45
2018-07-11T08:01:13.127Z,71.30
2018-07-11T08:03:44.834Z,77.67
2018-07-11T08:06:17.043Z,88.25
2018-07-11T08:08:48.632Z,74.37
2018-07-11T08:11:20.758Z,74.37
2018-07-11T08:13:53.023Z,77.67
2018-07-11T08:16:25.001Z,69.42
2018-07-11T08:18:56.486Z,64.27
2018-07-11T08:21:28.381Z,63.63
2018-07-11T08:24:10.146Z,70.40
2018-07-11T08:26:52.431Z,67.40
2018-07-11T08:29:29.299Z,70.47
2018-07-11T08:35:15.843Z,74.97
2018-07-11T08:38:31.438Z,63.58
2018-07-11T08:41:07.983Z,54.27
2018-07-11T08:45:01.451Z,55.92
2018-07-11T08:48:45.284Z,57.08
2018-07-11T08:51:19.378Z,58.85
2018-07-11T08:54:01.114Z,70.12
2018-07-11T08:56:58.028Z,58.80
2018-07-11T09:00:11.403Z,76.75
2018-07-11T09:03:04.507Z,58.15
2018-07-11T09:05:50.794Z,67.50
2018-07-11T09:11:44.286Z,63.63
2018-07-11T09:17:33.945Z,64.15
2018-07-11T09:20:29.203Z,66.30
2018-07-11T09:25:08.918Z,64.03
2018-07-11T09:27:40.442Z,60.63
2018-07-11T09:30:12.644Z,50.92
2018-07-11T09:32:44.937Z,58.98
2018-07-11T09:35:17.782Z,49.55
2018-07-11T09:37:49.552Z,59.37
2018-07-11T09:40:22.428Z,55.65
2018-07-11T09:42:56.078Z,59.18
2018-07-11T09:45:28.360Z,64.47
2018-07-11T09:48:00.254Z,55.87
2018-07-11T09:50:33.315Z,49.45
2018-07-11T09:53:05.102Z,67.90
2018-07-11T09:55:37.121Z,72.40
2018-07-11T09:58:09.557Z,65.40
2018-07-11T10:00:48.500Z,56.53
2018-07-11T10:03:20.884Z,44.83
2018-07-11T10:05:54.145Z,64.37
2018-07-11T10:08:26.080Z,58.73
2018-07-11T10:10:58.330Z,48.73
2018-07-11T10:13:30.160Z,56.98
2018-07-11T10:16:02.032Z,56.87
2018-07-11T10:18:33.768Z,47.57
2018-07-11T10:21:05.778Z,57.10
2018-07-11T10:23:37.837Z,49.67
2018-07-11T10:26:08.931Z,52.35
2018-07-11T10:28:40.463Z,66.25
2018-07-11T10:31:12.187Z,48.77
2018-07-11T10:33:43.965Z,63.50
2018-07-11T10:36:16.241Z,54.08
2018-07-11T10:38:48.071Z,56.05
2018-07-11T10:41:20.217Z,51.42
2018-07-11T10:43:53.462Z,61.43
2018-07-11T10:46:25.344Z,48.07
2018-07-11T10:48:57.314Z,57.78
2018-07-11T10:51:29.123Z,46.37
2018-07-11T10:54:00.918Z,56.07
2018-07-11T10:56:33.265Z,55.47
2018-07-11T10:59:05.401Z,51.30
2018-07-11T11:01:37.402Z,57.47
2018-07-11T11:04:09.710Z,54.73
2018-07-11T11:06:43.211Z,44.23
2018-07-11T11:09:15.530Z,44.80
2018-07-11T11:11:48.363Z,68.90
2018-07-11T11:14:21.506Z,61.60
2018-07-11T11:16:55.166Z,56.80
2018-07-11T11:19:27.811Z,47.90
2018-07-11T11:22:01.053Z,53.33
2018-07-11T11:24:32.772Z,51.83
2018-07-11T11:27:04.580Z,58.07
2018-07-11T11:29:36.318Z,50.50
2018-07-11T11:32:08.485Z,60.43
2018-07-11T11:34:40.239Z,54.07
2018-07-11T11:37:12.335Z,40.67
2018-07-11T11:39:44.293Z,42.63
2018-07-11T11:42:16.448Z,44.50
2018-07-11T11:44:49.562Z,47.40
2018-07-11T11:47:28.803Z,48.43
2018-07-11T11:50:00.660Z,49.93
2018-07-11T11:52:32.886Z,51.60
2018-07-11T11:55:04.716Z,39.73
2018-07-11T11:57:35.853Z,43.83
2018-07-11T12:00:07.675Z,58.00
2018-07-11T12:02:39.943Z,54.07
2018-07-11T12:05:11.643Z,53.20
2018-07-11T12:07:43.737Z,59.87
2018-07-11T12:10:15.670Z,49.23
2018-07-11T12:12:47.825Z,45.13
2018-07-11T12:15:19.753Z,51.10
2018-07-11T12:17:52.578Z,38.53
2018-07-11T12:20:24.428Z,59.47
2018-07-11T12:22:56.538Z,63.57
2018-07-11T12:25:28.399Z,61.53
2018-07-11T12:28:00.559Z,50.27
2018-07-11T12:30:33.131Z,43.60
2018-07-11T12:33:04.018Z,49.20
2018-07-11T12:35:35.790Z,53.67
2018-07-11T12:38:07.930Z,65.70
2018-07-11T12:40:40.250Z,51.30
2018-07-11T12:43:12.990Z,52.17
2018-07-11T12:45:47.028Z,53.20
2018-07-11T12:48:24.231Z,52.23
2018-07-11T12:50:56.043Z,57.00
2018-07-11T12:53:28.403Z,46.20
2018-07-11T12:56:00.400Z,55.80
2018-07-11T12:58:32.520Z,58.27
2018-07-11T13:01:04.798Z,61.07
2018-07-11T13:03:37.086Z,44.47
2018-07-11T13:06:09.475Z,42.37
2018-07-11T13:08:41.890Z,52.47
2018-07-11T13:11:13.787Z,60.87
2018-07-11T13:13:45.751Z,61.37
2018-07-11T13:16:17.844Z,72.83
2018-07-11T13:18:50.149Z,55.93
2018-07-11T13:21:22.032Z,52.90
2018-07-11T13:23:54.285Z,55.47
2018-07-11T13:26:27.299Z,53.93
2018-07-11T13:28:59.823Z,50.57
2018-07-11T13:31:34.872Z,61.93
2018-07-11T13:34:11.605Z,66.80
2018-07-11T13:36:46.234Z,44.70
2018-07-11T13:39:23.189Z,61.83
2018-07-11T13:41:55.129Z,50.53
2018-07-11T13:44:27.191Z,51.40
2018-07-11T13:47:05.644Z,51.10
2018-07-11T13:49:37.639Z,47.30
2018-07-11T13:52:09.398Z,58.07
2018-07-11T13:54:41.590Z,54.37
2018-07-11T13:57:12.617Z,46.97
2018-07-11T13:59:44.516Z,63.43
2018-07-11T14:02:16.425Z,52.83
2018-07-11T14:04:48.178Z,56.80
2018-07-11T14:07:20.253Z,55.27
2018-07-11T14:09:56.928Z,44.63
2018-07-11T14:12:30.071Z,46.30
2018-07-11T14:15:12.369Z,49.43
2018-07-11T14:17:44.850Z,63.03
2018-07-11T14:20:16.853Z,40.93
2018-07-11T14:22:49.888Z,54.57
2018-07-11T14:25:22.556Z,61.13
2018-07-11T14:27:54.760Z,75.73
2018-07-11T14:30:26.605Z,62.70
2018-07-11T14:33:01.662Z,66.70
2018-07-11T14:35:34.930Z,55.10
2018-07-11T14:38:06.965Z,51.13
2018-07-11T14:40:40.421Z,54.37
2018-07-11T14:43:11.306Z,52.23
2018-07-11T14:45:43.716Z,54.70
2018-07-11T14:48:18.938Z,58.80
2018-07-11T14:50:52.193Z,54.90
2018-07-11T14:53:24.600Z,56.33
2018-07-11T14:55:57.074Z,57.27
2018-07-11T14:58:29.230Z,60.07
2018-07-11T15:01:01.116Z,56.30
2018-07-11T15:03:33.526Z,52.07
2018-07-11T15:06:06.382Z,55.17
2018-07-11T15:08:38.441Z,59.83
2018-07-11T15:11:10.460Z,56.50
2018-07-11T15:13:42.582Z,66.40
2018-07-11T15:16:14.861Z,56.70
2018-07-11T15:18:46.084Z,58.23
2018-07-11T15:21:18.555Z,51.03
2018-07-11T15:23:50.351Z,49.80
2018-07-11T15:26:22.647Z,54.27
2018-07-11T15:28:54.401Z,56.37
2018-07-11T15:31:26.335Z,51.57
2018-07-11T15:33:58.370Z,53.47
2018-07-11T15:36:30.781Z,60.83
2018-07-11T15:39:03.305Z,56.70
2018-07-11T15:41:36.112Z,63.10
2018-07-11T15:44:08.843Z,63.13
2018-07-11T15:46:41.165Z,50.03
2018-07-11T15:49:14.683Z,58.40
2018-07-11T15:51:46.974Z,48.97
2018-07-11T15:54:19.010Z,60.10
2018-07-11T15:56:50.329Z,46.47
2018-07-11T15:59:25.800Z,59.87
2018-07-11T16:01:59.109Z,51.90
2018-07-11T16:04:38.298Z,60.03
2018-07-11T16:07:10.987Z,56.33
2018-07-11T16:10:02.551Z,50.20
2018-07-11T16:12:38.012Z,77.27
2018-07-11T16:15:09.045Z,59.13
2018-07-11T16:17:42.352Z,52.10
2018-07-11T16:20:15.583Z,49.30
2018-07-11T16:22:53.009Z,53.43
2018-07-11T16:25:25.303Z,59.70
2018-07-11T16:27:56.368Z,60.47
2018-07-11T16:30:28.385Z,52.33
2018-07-11T16:33:04.279Z,62.87
2018-07-11T16:35:38.471Z,52.20
2018-07-11T16:38:10.450Z,53.67
2018-07-11T16:40:42.244Z,56.07
2018-07-11T16:43:15.729Z,54.83
2018-07-11T16:45:52.081Z,62.43
2018-07-11T16:48:24.195Z,47.33
2018-07-11T16:50:59.031Z,51.60
2018-07-11T16:53:34.432Z,55.03
2018-07-11T16:56:09.016Z,56.07
2018-07-11T16:58:46.148Z,62.07
2018-07-11T17:01:18.187Z,57.00
2018-07-11T17:03:54.497Z,57.97
2018-07-11T17:06:26.778Z,49.80
2018-07-11T17:09:00.173Z,55.63
2018-07-11T17:11:32.456Z,58.93
2018-07-11T17:14:05.771Z,51.63
2018-07-11T17:17:00.133Z,51.90
2018-07-11T17:19:40.545Z,53.93
2018-07-11T17:22:12.982Z,56.47
2018-07-11T17:24:49.567Z,49.83
2018-07-11T17:27:24.040Z,65.03
2018-07-11T17:30:03.118Z,55.00
2018-07-11T17:32:35.402Z,62.37
2018-07-11T17:35:07.314Z,56.63
2018-07-11T17:37:39.524Z,53.50
2018-07-11T17:40:12.081Z,65.30
2018-07-11T17:42:46.557Z,58.97
2018-07-11T17:45:20.671Z,56.63
2018-07-11T17:50:05.320Z,53.73
2018-07-11T17:52:56.631Z,47.47
2018-07-11T17:55:37.707Z,57.63
2018-07-11T17:58:11.446Z,53.07
2018-07-11T18:00:52.073Z,59.83
2018-07-11T18:03:32.918Z,53.33
2018-07-11T18:06:42.098Z,66.07
2018-07-11T18:09:15.398Z,58.87
2018-07-11T18:11:58.356Z,45.77
2018-07-11T18:14:45.389Z,61.40
2018-07-11T18:17:25.782Z,55.10
2018-07-11T18:22:15.153Z,47.40
2018-07-11T18:25:54.648Z,47.63
2018-07-11T18:29:36.980Z,46.27
2018-07-11T18:32:19.453Z,55.70
2018-07-11T18:35:34.556Z,45.47
2018-07-11T18:39:09.911Z,51.10
2018-07-11T18:42:50.127Z,57.87
2018-07-11T18:48:34.644Z,53.30
2018-07-11T18:51:15.766Z,57.50
2018-07-11T18:54:12.742Z,45.33
2018-07-11T18:57:08.464Z,42.97
2018-07-11T19:00:52.946Z,59.67
2018-07-11T19:03:32.555Z,58.00
2018-07-11T19:08:24.270Z,55.17
2018-07-11T19:11:06.299Z,65.97
2018-07-11T19:13:47.354Z,71.73
2018-07-11T19:16:30.343Z,61.97
2018-07-11T19:19:10.458Z,83.37
2018-07-11T19:21:51.582Z,71.83
2018-07-11T19:24:28.423Z,58.43
2018-07-11T19:27:23.425Z,78.10
2018-07-11T19:30:15.181Z,76.57
2018-07-11T19:36:02.740Z,72.87
2018-07-11T19:38:39.483Z,94.10
2018-07-11T19:41:22.786Z,94.03
2018-07-11T19:43:59.984Z,108.73
2018-07-11T19:48:50.990Z,101.90
2018-07-11T19:51:43.843Z,77.93
2018-07-11T19:55:26.381Z,84.60
2018-07-11T19:57:57.486Z,71.93
2018-07-11T20:00:29.310Z,61.77
2018-07-11T20:03:01.753Z,65.37
2018-07-11T20:05:33.841Z,54.70
2018-07-11T20:08:06.126Z,68.40
2018-07-11T20:10:38.464Z,63.53
2018-07-11T20:13:10.764Z,63.37
2018-07-11T20:15:42.889Z,65.30
2018-07-11T20:18:14.883Z,53.50
2018-07-11T20:20:47.094Z,49.00
2018-07-11T20:23:19.135Z,60.13
2018-07-11T20:25:51.429Z,60.27
2018-07-11T20:28:23.638Z,59.57
2018-07-11T20:30:55.687Z,57.50
2018-07-11T20:33:27.440Z,59.97
2018-07-11T20:35:59.690Z,62.40
2018-07-11T20:38:31.687Z,70.00
2018-07-11T20:41:04.092Z,62.23
2018-07-11T20:43:36.177Z,47.07
2018-07-11T20:46:09.074Z,68.27
2018-07-11T20:48:41.416Z,53.83
2018-07-11T20:51:13.546Z,62.43
2018-07-11T20:53:45.461Z,66.30
2018-07-11T20:56:18.632Z,58.77
2018-07-11T20:59:00.083Z,52.40
2018-07-11T21:01:42.187Z,66.23
2018-07-11T21:04:25.322Z,56.43
2018-07-11T21:07:59.261Z,61.50
2018-07-11T21:11:24.442Z,65.50
2018-07-11T21:16:24.142Z,55.57
2018-07-11T21:19:15.730Z,65.30
2018-07-11T21:21:48.261Z,58.60
2018-07-11T21:24:20.058Z,61.30
2018-07-11T21:26:51.986Z,80.73
2018-07-11T21:29:23.975Z,69.97
2018-07-11T21:31:56.160Z,51.83
2018-07-11T21:34:28.632Z,63.03
2018-07-11T21:37:00.719Z,62.43
2018-07-11T21:39:32.443Z,64.93
2018-07-11T21:42:04.614Z,62.37
2018-07-11T21:44:36.678Z,62.00
2018-07-11T21:47:08.885Z,54.10
2018-07-11T21:49:40.847Z,57.30
2018-07-11T21:52:12.959Z,49.43
2018-07-11T21:54:44.823Z,62.23
2018-07-11T21:57:18.219Z,53.60
2018-07-11T21:59:49.964Z,69.63
2018-07-11T22:02:22.603Z,53.77
2018-07-11T22:04:54.615Z,67.60
2018-07-11T22:07:26.507Z,52.13
2018-07-11T22:09:58.224Z,62.23
2018-07-11T22:12:30.158Z,54.20
2018-07-11T22:15:01.918Z,54.93
2018-07-11T22:17:44.122Z,63.00
2018-07-11T22:20:13.478Z,69.37
2018-07-11T22:22:42.475Z,61.63
2018-07-11T22:25:11.602Z,71.00
2018-07-11T22:27:40.563Z,66.83
2018-07-11T22:30:09.467Z,50.40
2018-07-11T22:32:38.830Z,59.77
2018-07-11T22:35:07.763Z,64.77
2018-07-11T22:37:36.775Z,58.53
2018-07-11T22:40:05.875Z,61.93
2018-07-11T22:42:34.894Z,58.33
2018-07-11T22:45:03.843Z,59.93
2018-07-11T22:47:33.246Z,68.53
2018-07-11T22:50:03.055Z,78.47
2018-07-11T22:52:32.881Z,58.20
2018-07-11T22:55:02.234Z,59.27
2018-07-11T22:57:32.079Z,58.23
2018-07-11T23:00:00.883Z,61.47
2018-07-11T23:02:30.079Z,65.47
2018-07-11T23:04:59.075Z,57.00
2018-07-11T23:07:28.071Z,65.27
2018-07-11T23:09:57.219Z,63.67
2018-07-11T23:12:26.380Z,72.77
2018-07-11T23:14:55.614Z,72.90
2018-07-11T23:17:25.032Z,70.60
2018-07-11T23:19:54.421Z,61.70
2018-07-11T23:22:23.990Z,72.60
2018-07-11T23:24:53.443Z,64.20
2018-07-11T23:27:22.539Z,59.20
2018-07-11T23:29:51.543Z,75.43
2018-07-11T23:32:20.773Z,65.93
2018-07-11T23:34:49.774Z,67.30
2018-07-11T23:37:18.909Z,59.93
2018-07-11T23:39:48.051Z,62.43
2018-07-11T23:42:17.005Z,68.63
2018-07-11T23:44:45.911Z,64.93
2018-07-11T23:47:15.277Z,74.83
2018-07-11T23:49:44.255Z,72.27
2018-07-11T23:52:13.239Z,76.47
2018-07-11T23:54:42.797Z,54.40
2018-07-11T23:57:11.930Z,61.33
2018-07-11T23:59:42.018Z,64.83
